sensor_id;sensor_type;location;lat;lon;timestamp;P1;durP1;ratioP1;P2;durP2;ratioP2
75218;SDS011;63801;49.414;19.474;2023-04-24T00:00:28;27.85;;;16.05;;
75218;SDS011;63801;49.414;19.474;2023-04-24T00:02:28;30.45;;;18.10;;
75218;SDS011;63801;49.414;19.474;2023-04-24T00:04:29;36.28;;;19.05;;
75218;SDS011;63801;49.414;19.474;2023-04-24T00:06:30;38.83;;;20.92;;
75218;SDS011;63801;49.414;19.474;2023-04-24T00:08:34;36.67;;;19.70;;
75218;SDS011;63801;49.414;19.474;2023-04-24T00:10:35;39.60;;;22.10;;
75218;SDS011;63801;49.414;19.474;2023-04-24T00:12:36;38.63;;;20.75;;
75218;SDS011;63801;49.414;19.474;2023-04-24T00:14:36;36.90;;;21.27;;
75218;SDS011;63801;49.414;19.474;2023-04-24T00:16:36;39.53;;;21.73;;
75218;SDS011;63801;49.414;19.474;2023-04-24T00:18:37;35.45;;;20.42;;
75218;SDS011;63801;49.414;19.474;2023-04-24T00:20:37;37.95;;;21.35;;
75218;SDS011;63801;49.414;19.474;2023-04-24T00:22:38;40.15;;;20.42;;
75218;SDS011;63801;49.414;19.474;2023-04-24T00:24:38;43.28;;;23.35;;
75218;SDS011;63801;49.414;19.474;2023-04-24T00:26:39;38.38;;;22.63;;
75218;SDS011;63801;49.414;19.474;2023-04-24T00:28:39;42.65;;;22.35;;
75218;SDS011;63801;49.414;19.474;2023-04-24T00:30:40;43.85;;;29.73;;
75218;SDS011;63801;49.414;19.474;2023-04-24T00:32:40;43.90;;;25.20;;
75218;SDS011;63801;49.414;19.474;2023-04-24T00:34:40;41.08;;;24.80;;
75218;SDS011;63801;49.414;19.474;2023-04-24T00:36:41;44.53;;;23.60;;
75218;SDS011;63801;49.414;19.474;2023-04-24T00:38:42;41.88;;;23.85;;
75218;SDS011;63801;49.414;19.474;2023-04-24T00:40:42;47.47;;;27.67;;
75218;SDS011;63801;49.414;19.474;2023-04-24T00:42:43;49.55;;;27.02;;
75218;SDS011;63801;49.414;19.474;2023-04-24T00:44:43;48.15;;;27.27;;
75218;SDS011;63801;49.414;19.474;2023-04-24T00:46:44;47.60;;;24.85;;
75218;SDS011;63801;49.414;19.474;2023-04-24T00:48:46;39.43;;;21.80;;
75218;SDS011;63801;49.414;19.474;2023-04-24T00:50:46;34.15;;;19.77;;
75218;SDS011;63801;49.414;19.474;2023-04-24T00:52:47;31.45;;;19.27;;
75218;SDS011;63801;49.414;19.474;2023-04-24T00:54:47;35.22;;;19.38;;
75218;SDS011;63801;49.414;19.474;2023-04-24T00:56:47;34.08;;;20.25;;
75218;SDS011;63801;49.414;19.474;2023-04-24T00:58:48;32.40;;;19.20;;
75218;SDS011;63801;49.414;19.474;2023-04-24T01:00:49;37.22;;;22.48;;
75218;SDS011;63801;49.414;19.474;2023-04-24T01:02:53;46.17;;;25.10;;
75218;SDS011;63801;49.414;19.474;2023-04-24T01:04:53;39.85;;;25.05;;
75218;SDS011;63801;49.414;19.474;2023-04-24T01:06:54;37.83;;;22.08;;
75218;SDS011;63801;49.414;19.474;2023-04-24T01:08:55;42.10;;;24.35;;
75218;SDS011;63801;49.414;19.474;2023-04-24T01:10:56;45.55;;;24.13;;
75218;SDS011;63801;49.414;19.474;2023-04-24T01:12:57;35.70;;;19.52;;
75218;SDS011;63801;49.414;19.474;2023-04-24T01:14:58;33.85;;;18.35;;
75218;SDS011;63801;49.414;19.474;2023-04-24T01:16:59;26.98;;;16.27;;
75218;SDS011;63801;49.414;19.474;2023-04-24T01:19:00;31.00;;;16.02;;
75218;SDS011;63801;49.414;19.474;2023-04-24T01:21:01;29.70;;;17.48;;
75218;SDS011;63801;49.414;19.474;2023-04-24T01:23:04;29.88;;;16.45;;
75218;SDS011;63801;49.414;19.474;2023-04-24T01:25:04;38.92;;;19.25;;
75218;SDS011;63801;49.414;19.474;2023-04-24T01:27:06;32.70;;;19.67;;
75218;SDS011;63801;49.414;19.474;2023-04-24T01:29:07;31.58;;;17.73;;
75218;SDS011;63801;49.414;19.474;2023-04-24T01:31:07;33.47;;;18.00;;
75218;SDS011;63801;49.414;19.474;2023-04-24T01:33:08;31.20;;;18.05;;
75218;SDS011;63801;49.414;19.474;2023-04-24T01:35:08;35.78;;;19.33;;
75218;SDS011;63801;49.414;19.474;2023-04-24T01:37:09;32.08;;;18.88;;
75218;SDS011;63801;49.414;19.474;2023-04-24T01:39:09;29.33;;;16.33;;
75218;SDS011;63801;49.414;19.474;2023-04-24T01:41:10;32.40;;;16.60;;
75218;SDS011;63801;49.414;19.474;2023-04-24T01:43:11;28.10;;;16.08;;
75218;SDS011;63801;49.414;19.474;2023-04-24T01:45:12;30.70;;;17.55;;
75218;SDS011;63801;49.414;19.474;2023-04-24T01:47:15;31.33;;;18.25;;
75218;SDS011;63801;49.414;19.474;2023-04-24T01:49:16;29.90;;;16.63;;
75218;SDS011;63801;49.414;19.474;2023-04-24T01:51:16;29.73;;;15.20;;
75218;SDS011;63801;49.414;19.474;2023-04-24T01:53:17;29.20;;;14.45;;
75218;SDS011;63801;49.414;19.474;2023-04-24T01:55:17;23.48;;;12.98;;
75218;SDS011;63801;49.414;19.474;2023-04-24T01:57:18;23.23;;;12.25;;
75218;SDS011;63801;49.414;19.474;2023-04-24T01:59:18;25.08;;;13.10;;
75218;SDS011;63801;49.414;19.474;2023-04-24T02:01:20;23.02;;;12.88;;
75218;SDS011;63801;49.414;19.474;2023-04-24T02:03:21;23.90;;;13.57;;
75218;SDS011;63801;49.414;19.474;2023-04-24T02:05:21;21.55;;;11.85;;
75218;SDS011;63801;49.414;19.474;2023-04-24T02:07:22;22.35;;;12.73;;
75218;SDS011;63801;49.414;19.474;2023-04-24T02:09:22;25.20;;;12.10;;
75218;SDS011;63801;49.414;19.474;2023-04-24T02:11:23;23.38;;;12.70;;
75218;SDS011;63801;49.414;19.474;2023-04-24T02:13:23;18.27;;;10.35;;
75218;SDS011;63801;49.414;19.474;2023-04-24T02:15:24;20.13;;;12.52;;
75218;SDS011;63801;49.414;19.474;2023-04-24T02:17:24;21.42;;;12.07;;
75218;SDS011;63801;49.414;19.474;2023-04-24T02:19:24;21.00;;;11.82;;
75218;SDS011;63801;49.414;19.474;2023-04-24T02:21:25;24.08;;;12.90;;
75218;SDS011;63801;49.414;19.474;2023-04-24T02:23:25;23.80;;;13.48;;
75218;SDS011;63801;49.414;19.474;2023-04-24T02:25:27;24.17;;;13.43;;
75218;SDS011;63801;49.414;19.474;2023-04-24T02:27:27;25.45;;;13.80;;
75218;SDS011;63801;49.414;19.474;2023-04-24T02:29:27;26.55;;;13.60;;
75218;SDS011;63801;49.414;19.474;2023-04-24T02:31:28;23.30;;;13.45;;
75218;SDS011;63801;49.414;19.474;2023-04-24T02:33:28;25.60;;;13.75;;
75218;SDS011;63801;49.414;19.474;2023-04-24T02:35:29;27.80;;;15.57;;
75218;SDS011;63801;49.414;19.474;2023-04-24T02:37:29;27.60;;;15.50;;
75218;SDS011;63801;49.414;19.474;2023-04-24T02:39:30;30.90;;;15.00;;
75218;SDS011;63801;49.414;19.474;2023-04-24T02:41:30;24.80;;;14.18;;
75218;SDS011;63801;49.414;19.474;2023-04-24T02:43:32;27.38;;;14.93;;
75218;SDS011;63801;49.414;19.474;2023-04-24T02:45:33;25.95;;;13.40;;
75218;SDS011;63801;49.414;19.474;2023-04-24T02:47:34;26.52;;;14.55;;
75218;SDS011;63801;49.414;19.474;2023-04-24T02:49:34;26.30;;;13.13;;
75218;SDS011;63801;49.414;19.474;2023-04-24T02:51:35;23.48;;;13.60;;
75218;SDS011;63801;49.414;19.474;2023-04-24T02:55:38;26.50;;;13.93;;
75218;SDS011;63801;49.414;19.474;2023-04-24T02:57:38;22.30;;;13.05;;
75218;SDS011;63801;49.414;19.474;2023-04-24T02:59:38;18.60;;;10.02;;
75218;SDS011;63801;49.414;19.474;2023-04-24T03:01:39;21.27;;;10.60;;
75218;SDS011;63801;49.414;19.474;2023-04-24T03:03:39;22.33;;;12.15;;
75218;SDS011;63801;49.414;19.474;2023-04-24T03:05:40;22.15;;;11.85;;
75218;SDS011;63801;49.414;19.474;2023-04-24T03:07:40;22.60;;;12.25;;
75218;SDS011;63801;49.414;19.474;2023-04-24T03:09:41;22.70;;;11.63;;
75218;SDS011;63801;49.414;19.474;2023-04-24T03:11:41;24.48;;;11.20;;
75218;SDS011;63801;49.414;19.474;2023-04-24T03:13:41;21.08;;;11.93;;
75218;SDS011;63801;49.414;19.474;2023-04-24T03:15:42;18.05;;;11.05;;
75218;SDS011;63801;49.414;19.474;2023-04-24T03:17:42;24.40;;;13.07;;
75218;SDS011;63801;49.414;19.474;2023-04-24T03:19:42;23.13;;;12.57;;
75218;SDS011;63801;49.414;19.474;2023-04-24T03:21:43;18.00;;;11.52;;
75218;SDS011;63801;49.414;19.474;2023-04-24T03:23:43;18.92;;;9.88;;
75218;SDS011;63801;49.414;19.474;2023-04-24T03:25:44;20.95;;;10.93;;
75218;SDS011;63801;49.414;19.474;2023-04-24T03:27:45;19.95;;;10.05;;
75218;SDS011;63801;49.414;19.474;2023-04-24T03:29:46;19.90;;;10.30;;
75218;SDS011;63801;49.414;19.474;2023-04-24T03:31:46;17.88;;;9.95;;
75218;SDS011;63801;49.414;19.474;2023-04-24T03:33:46;20.15;;;9.88;;
75218;SDS011;63801;49.414;19.474;2023-04-24T03:35:47;22.40;;;9.50;;
75218;SDS011;63801;49.414;19.474;2023-04-24T03:37:47;18.13;;;9.95;;
75218;SDS011;63801;49.414;19.474;2023-04-24T03:39:47;31.10;;;14.90;;
75218;SDS011;63801;49.414;19.474;2023-04-24T03:41:47;43.05;;;19.02;;
75218;SDS011;63801;49.414;19.474;2023-04-24T03:43:48;35.97;;;17.60;;
75218;SDS011;63801;49.414;19.474;2023-04-24T03:45:48;32.15;;;18.13;;
75218;SDS011;63801;49.414;19.474;2023-04-24T03:47:48;30.10;;;16.58;;
75218;SDS011;63801;49.414;19.474;2023-04-24T03:49:49;33.03;;;17.30;;
75218;SDS011;63801;49.414;19.474;2023-04-24T03:51:49;28.48;;;16.50;;
75218;SDS011;63801;49.414;19.474;2023-04-24T03:53:50;28.77;;;16.60;;
75218;SDS011;63801;49.414;19.474;2023-04-24T03:55:51;31.48;;;17.27;;
75218;SDS011;63801;49.414;19.474;2023-04-24T03:57:51;29.95;;;16.30;;
75218;SDS011;63801;49.414;19.474;2023-04-24T03:59:51;29.55;;;16.00;;
75218;SDS011;63801;49.414;19.474;2023-04-24T04:01:53;27.05;;;14.52;;
75218;SDS011;63801;49.414;19.474;2023-04-24T04:03:53;28.02;;;15.02;;
75218;SDS011;63801;49.414;19.474;2023-04-24T04:05:54;25.40;;;14.32;;
75218;SDS011;63801;49.414;19.474;2023-04-24T04:07:54;28.83;;;15.82;;
75218;SDS011;63801;49.414;19.474;2023-04-24T04:09:54;24.77;;;15.50;;
75218;SDS011;63801;49.414;19.474;2023-04-24T04:11:55;26.73;;;15.75;;
75218;SDS011;63801;49.414;19.474;2023-04-24T04:13:55;38.58;;;17.58;;
75218;SDS011;63801;49.414;19.474;2023-04-24T04:15:56;29.20;;;15.15;;
75218;SDS011;63801;49.414;19.474;2023-04-24T04:17:57;26.42;;;14.23;;
75218;SDS011;63801;49.414;19.474;2023-04-24T04:19:57;27.23;;;14.88;;
75218;SDS011;63801;49.414;19.474;2023-04-24T04:21:57;24.40;;;13.80;;
75218;SDS011;63801;49.414;19.474;2023-04-24T04:23:57;29.67;;;16.02;;
75218;SDS011;63801;49.414;19.474;2023-04-24T04:25:58;29.80;;;16.48;;
75218;SDS011;63801;49.414;19.474;2023-04-24T04:27:59;23.35;;;14.70;;
75218;SDS011;63801;49.414;19.474;2023-04-24T04:30:02;29.63;;;15.82;;
75218;SDS011;63801;49.414;19.474;2023-04-24T04:32:04;29.02;;;15.85;;
75218;SDS011;63801;49.414;19.474;2023-04-24T04:34:05;26.25;;;13.95;;
75218;SDS011;63801;49.414;19.474;2023-04-24T04:36:05;27.55;;;16.08;;
75218;SDS011;63801;49.414;19.474;2023-04-24T04:38:06;25.35;;;12.73;;
75218;SDS011;63801;49.414;19.474;2023-04-24T04:40:08;29.83;;;12.63;;
75218;SDS011;63801;49.414;19.474;2023-04-24T04:42:12;24.55;;;12.70;;
75218;SDS011;63801;49.414;19.474;2023-04-24T04:44:13;20.70;;;12.68;;
75218;SDS011;63801;49.414;19.474;2023-04-24T04:46:14;22.90;;;12.50;;
75218;SDS011;63801;49.414;19.474;2023-04-24T04:48:14;26.27;;;11.65;;
75218;SDS011;63801;49.414;19.474;2023-04-24T04:50:17;22.35;;;12.15;;
75218;SDS011;63801;49.414;19.474;2023-04-24T04:52:18;22.50;;;11.35;;
75218;SDS011;63801;49.414;19.474;2023-04-24T04:54:19;17.95;;;10.80;;
75218;SDS011;63801;49.414;19.474;2023-04-24T04:56:19;26.13;;;15.32;;
75218;SDS011;63801;49.414;19.474;2023-04-24T04:58:20;28.15;;;13.13;;
75218;SDS011;63801;49.414;19.474;2023-04-24T05:00:20;22.38;;;12.23;;
75218;SDS011;63801;49.414;19.474;2023-04-24T05:02:21;20.25;;;11.57;;
75218;SDS011;63801;49.414;19.474;2023-04-24T05:04:21;20.52;;;11.57;;
75218;SDS011;63801;49.414;19.474;2023-04-24T05:06:21;30.88;;;15.80;;
75218;SDS011;63801;49.414;19.474;2023-04-24T05:08:22;17.23;;;11.13;;
75218;SDS011;63801;49.414;19.474;2023-04-24T05:10:22;25.30;;;11.93;;
75218;SDS011;63801;49.414;19.474;2023-04-24T05:12:23;25.80;;;12.57;;
75218;SDS011;63801;49.414;19.474;2023-04-24T05:14:23;21.63;;;11.07;;
75218;SDS011;63801;49.414;19.474;2023-04-24T05:16:23;18.08;;;9.48;;
75218;SDS011;63801;49.414;19.474;2023-04-24T05:18:24;14.25;;;9.18;;
75218;SDS011;63801;49.414;19.474;2023-04-24T05:20:24;18.13;;;10.15;;
75218;SDS011;63801;49.414;19.474;2023-04-24T05:22:24;25.95;;;14.10;;
75218;SDS011;63801;49.414;19.474;2023-04-24T05:24:25;16.13;;;11.27;;
75218;SDS011;63801;49.414;19.474;2023-04-24T05:26:25;20.23;;;11.90;;
75218;SDS011;63801;49.414;19.474;2023-04-24T05:28:25;17.70;;;10.43;;
75218;SDS011;63801;49.414;19.474;2023-04-24T05:30:28;19.13;;;11.50;;
75218;SDS011;63801;49.414;19.474;2023-04-24T05:32:28;17.00;;;11.65;;
75218;SDS011;63801;49.414;19.474;2023-04-24T05:34:29;21.85;;;12.65;;
75218;SDS011;63801;49.414;19.474;2023-04-24T05:36:29;26.30;;;13.15;;
75218;SDS011;63801;49.414;19.474;2023-04-24T05:38:31;18.45;;;11.80;;
75218;SDS011;63801;49.414;19.474;2023-04-24T05:40:31;18.77;;;10.45;;
75218;SDS011;63801;49.414;19.474;2023-04-24T05:42:31;17.92;;;10.80;;
75218;SDS011;63801;49.414;19.474;2023-04-24T05:44:32;16.70;;;9.88;;
75218;SDS011;63801;49.414;19.474;2023-04-24T05:46:32;16.95;;;10.95;;
75218;SDS011;63801;49.414;19.474;2023-04-24T05:48:32;15.70;;;10.25;;
75218;SDS011;63801;49.414;19.474;2023-04-24T05:50:33;17.70;;;10.07;;
75218;SDS011;63801;49.414;19.474;2023-04-24T05:52:33;16.27;;;9.60;;
75218;SDS011;63801;49.414;19.474;2023-04-24T05:54:34;20.30;;;10.93;;
75218;SDS011;63801;49.414;19.474;2023-04-24T05:56:34;17.25;;;10.55;;
75218;SDS011;63801;49.414;19.474;2023-04-24T05:58:35;17.58;;;10.85;;
75218;SDS011;63801;49.414;19.474;2023-04-24T06:00:35;19.45;;;11.07;;
75218;SDS011;63801;49.414;19.474;2023-04-24T06:02:36;16.65;;;11.43;;
75218;SDS011;63801;49.414;19.474;2023-04-24T06:04:36;21.50;;;12.07;;
75218;SDS011;63801;49.414;19.474;2023-04-24T06:06:36;21.85;;;12.05;;
75218;SDS011;63801;49.414;19.474;2023-04-24T06:08:36;31.85;;;16.38;;
75218;SDS011;63801;49.414;19.474;2023-04-24T06:10:37;25.35;;;14.73;;
75218;SDS011;63801;49.414;19.474;2023-04-24T06:12:37;20.27;;;11.93;;
75218;SDS011;63801;49.414;19.474;2023-04-24T06:14:37;26.23;;;12.43;;
75218;SDS011;63801;49.414;19.474;2023-04-24T06:16:39;24.55;;;12.32;;
75218;SDS011;63801;49.414;19.474;2023-04-24T06:18:42;26.30;;;12.07;;
75218;SDS011;63801;49.414;19.474;2023-04-24T06:20:42;23.10;;;11.73;;
75218;SDS011;63801;49.414;19.474;2023-04-24T06:22:42;28.80;;;12.45;;
75218;SDS011;63801;49.414;19.474;2023-04-24T06:24:43;26.55;;;12.18;;
75218;SDS011;63801;49.414;19.474;2023-04-24T06:26:43;23.65;;;11.98;;
75218;SDS011;63801;49.414;19.474;2023-04-24T06:28:43;25.48;;;12.18;;
75218;SDS011;63801;49.414;19.474;2023-04-24T06:30:44;19.65;;;11.43;;
75218;SDS011;63801;49.414;19.474;2023-04-24T06:32:44;22.73;;;11.13;;
75218;SDS011;63801;49.414;19.474;2023-04-24T06:34:45;19.52;;;11.10;;
75218;SDS011;63801;49.414;19.474;2023-04-24T06:36:46;19.83;;;11.32;;
75218;SDS011;63801;49.414;19.474;2023-04-24T06:38:46;20.98;;;11.00;;
75218;SDS011;63801;49.414;19.474;2023-04-24T06:40:47;21.90;;;12.40;;
75218;SDS011;63801;49.414;19.474;2023-04-24T06:42:47;20.73;;;11.88;;
75218;SDS011;63801;49.414;19.474;2023-04-24T06:44:47;19.70;;;11.30;;
75218;SDS011;63801;49.414;19.474;2023-04-24T06:46:48;24.15;;;12.38;;
75218;SDS011;63801;49.414;19.474;2023-04-24T06:48:48;18.65;;;11.38;;
75218;SDS011;63801;49.414;19.474;2023-04-24T06:50:49;16.02;;;11.25;;
75218;SDS011;63801;49.414;19.474;2023-04-24T06:52:49;24.60;;;12.07;;
75218;SDS011;63801;49.414;19.474;2023-04-24T06:54:50;16.77;;;11.15;;
75218;SDS011;63801;49.414;19.474;2023-04-24T06:56:50;19.35;;;10.73;;
75218;SDS011;63801;49.414;19.474;2023-04-24T06:58:52;14.43;;;11.27;;
75218;SDS011;63801;49.414;19.474;2023-04-24T07:00:53;16.70;;;11.18;;
75218;SDS011;63801;49.414;19.474;2023-04-24T07:02:53;23.35;;;11.40;;
75218;SDS011;63801;49.414;19.474;2023-04-24T07:04:53;20.90;;;12.82;;
75218;SDS011;63801;49.414;19.474;2023-04-24T07:06:54;35.53;;;20.83;;
75218;SDS011;63801;49.414;19.474;2023-04-24T07:08:55;25.60;;;16.45;;
75218;SDS011;63801;49.414;19.474;2023-04-24T07:10:56;18.00;;;12.60;;
75218;SDS011;63801;49.414;19.474;2023-04-24T07:12:57;22.73;;;13.20;;
75218;SDS011;63801;49.414;19.474;2023-04-24T07:14:57;20.83;;;12.60;;
75218;SDS011;63801;49.414;19.474;2023-04-24T07:16:57;23.98;;;12.38;;
75218;SDS011;63801;49.414;19.474;2023-04-24T07:18:58;21.60;;;12.73;;
75218;SDS011;63801;49.414;19.474;2023-04-24T07:20:58;21.52;;;12.70;;
75218;SDS011;63801;49.414;19.474;2023-04-24T07:22:59;23.55;;;12.95;;
75218;SDS011;63801;49.414;19.474;2023-04-24T07:24:59;24.45;;;13.38;;
75218;SDS011;63801;49.414;19.474;2023-04-24T07:27:00;25.63;;;13.95;;
75218;SDS011;63801;49.414;19.474;2023-04-24T07:29:03;23.83;;;13.82;;
75218;SDS011;63801;49.414;19.474;2023-04-24T07:31:03;26.70;;;13.68;;
75218;SDS011;63801;49.414;19.474;2023-04-24T07:33:03;22.70;;;13.30;;
75218;SDS011;63801;49.414;19.474;2023-04-24T07:35:04;26.10;;;12.98;;
75218;SDS011;63801;49.414;19.474;2023-04-24T07:37:05;23.42;;;13.98;;
75218;SDS011;63801;49.414;19.474;2023-04-24T07:39:05;30.27;;;14.65;;
75218;SDS011;63801;49.414;19.474;2023-04-24T07:41:05;23.75;;;12.57;;
75218;SDS011;63801;49.414;19.474;2023-04-24T07:43:06;18.40;;;11.82;;
75218;SDS011;63801;49.414;19.474;2023-04-24T07:45:06;18.20;;;11.55;;
75218;SDS011;63801;49.414;19.474;2023-04-24T07:47:07;20.02;;;11.13;;
75218;SDS011;63801;49.414;19.474;2023-04-24T07:49:08;23.35;;;12.50;;
75218;SDS011;63801;49.414;19.474;2023-04-24T07:51:08;22.00;;;12.40;;
75218;SDS011;63801;49.414;19.474;2023-04-24T07:53:10;21.08;;;12.32;;
75218;SDS011;63801;49.414;19.474;2023-04-24T07:55:11;16.35;;;11.50;;
75218;SDS011;63801;49.414;19.474;2023-04-24T07:57:11;20.67;;;11.75;;
75218;SDS011;63801;49.414;19.474;2023-04-24T07:59:12;19.33;;;11.82;;
75218;SDS011;63801;49.414;19.474;2023-04-24T08:01:12;18.33;;;10.77;;
75218;SDS011;63801;49.414;19.474;2023-04-24T08:03:12;19.60;;;11.80;;
75218;SDS011;63801;49.414;19.474;2023-04-24T08:05:13;20.85;;;11.30;;
75218;SDS011;63801;49.414;19.474;2023-04-24T08:07:13;18.27;;;11.15;;
75218;SDS011;63801;49.414;19.474;2023-04-24T08:09:14;24.60;;;9.60;;
75218;SDS011;63801;49.414;19.474;2023-04-24T08:11:14;22.23;;;10.15;;
75218;SDS011;63801;49.414;19.474;2023-04-24T08:13:14;16.85;;;10.27;;
75218;SDS011;63801;49.414;19.474;2023-04-24T08:15:15;21.88;;;9.60;;
75218;SDS011;63801;49.414;19.474;2023-04-24T08:17:16;18.27;;;9.32;;
75218;SDS011;63801;49.414;19.474;2023-04-24T08:19:16;20.58;;;10.15;;
75218;SDS011;63801;49.414;19.474;2023-04-24T08:21:17;19.55;;;9.07;;
75218;SDS011;63801;49.414;19.474;2023-04-24T08:23:18;21.75;;;10.68;;
75218;SDS011;63801;49.414;19.474;2023-04-24T08:25:18;17.50;;;9.93;;
75218;SDS011;63801;49.414;19.474;2023-04-24T08:27:19;25.45;;;11.68;;
75218;SDS011;63801;49.414;19.474;2023-04-24T08:29:19;22.77;;;10.38;;
75218;SDS011;63801;49.414;19.474;2023-04-24T08:31:20;20.77;;;10.35;;
75218;SDS011;63801;49.414;19.474;2023-04-24T08:33:23;16.73;;;10.25;;
75218;SDS011;63801;49.414;19.474;2023-04-24T08:35:23;13.40;;;8.00;;
75218;SDS011;63801;49.414;19.474;2023-04-24T08:37:25;13.15;;;8.05;;
75218;SDS011;63801;49.414;19.474;2023-04-24T08:39:26;17.65;;;9.52;;
75218;SDS011;63801;49.414;19.474;2023-04-24T08:41:27;16.65;;;9.07;;
75218;SDS011;63801;49.414;19.474;2023-04-24T08:43:27;20.95;;;9.77;;
75218;SDS011;63801;49.414;19.474;2023-04-24T08:45:27;21.63;;;11.57;;
75218;SDS011;63801;49.414;19.474;2023-04-24T08:47:28;19.42;;;10.80;;
75218;SDS011;63801;49.414;19.474;2023-04-24T08:49:29;10.15;;;6.00;;
75218;SDS011;63801;49.414;19.474;2023-04-24T08:51:29;12.32;;;6.80;;
75218;SDS011;63801;49.414;19.474;2023-04-24T08:53:31;10.57;;;7.15;;
75218;SDS011;63801;49.414;19.474;2023-04-24T08:55:32;9.65;;;6.05;;
75218;SDS011;63801;49.414;19.474;2023-04-24T08:57:33;12.48;;;7.78;;
75218;SDS011;63801;49.414;19.474;2023-04-24T08:59:35;20.42;;;9.80;;
75218;SDS011;63801;49.414;19.474;2023-04-24T09:01:37;11.75;;;5.97;;
75218;SDS011;63801;49.414;19.474;2023-04-24T09:03:39;14.82;;;6.70;;
75218;SDS011;63801;49.414;19.474;2023-04-24T09:05:40;9.95;;;5.43;;
75218;SDS011;63801;49.414;19.474;2023-04-24T09:07:49;9.32;;;5.28;;
75218;SDS011;63801;49.414;19.474;2023-04-24T09:09:53;12.32;;;5.25;;
75218;SDS011;63801;49.414;19.474;2023-04-24T09:11:54;9.18;;;5.15;;
75218;SDS011;63801;49.414;19.474;2023-04-24T09:13:55;12.90;;;4.90;;
75218;SDS011;63801;49.414;19.474;2023-04-24T09:15:56;8.93;;;5.00;;
75218;SDS011;63801;49.414;19.474;2023-04-24T09:17:57;8.57;;;5.15;;
75218;SDS011;63801;49.414;19.474;2023-04-24T09:19:57;8.20;;;5.57;;
75218;SDS011;63801;49.414;19.474;2023-04-24T09:21:58;9.32;;;5.57;;
75218;SDS011;63801;49.414;19.474;2023-04-24T09:23:59;9.20;;;4.60;;
75218;SDS011;63801;49.414;19.474;2023-04-24T09:26:02;9.70;;;5.05;;
75218;SDS011;63801;49.414;19.474;2023-04-24T09:28:05;9.60;;;5.25;;
75218;SDS011;63801;49.414;19.474;2023-04-24T09:30:06;8.23;;;5.40;;
75218;SDS011;63801;49.414;19.474;2023-04-24T09:32:20;10.88;;;5.10;;
75218;SDS011;63801;49.414;19.474;2023-04-24T09:34:22;8.30;;;4.80;;
75218;SDS011;63801;49.414;19.474;2023-04-24T09:36:30;13.02;;;4.45;;
75218;SDS011;63801;49.414;19.474;2023-04-24T09:38:37;6.90;;;4.47;;
75218;SDS011;63801;49.414;19.474;2023-04-24T09:40:38;7.80;;;4.65;;
75218;SDS011;63801;49.414;19.474;2023-04-24T09:42:43;11.98;;;5.50;;
75218;SDS011;63801;49.414;19.474;2023-04-24T09:44:45;8.93;;;4.65;;
75218;SDS011;63801;49.414;19.474;2023-04-24T09:46:53;8.23;;;5.20;;
75218;SDS011;63801;49.414;19.474;2023-04-24T09:50:54;9.63;;;5.13;;
75218;SDS011;63801;49.414;19.474;2023-04-24T09:52:59;7.20;;;5.30;;
75218;SDS011;63801;49.414;19.474;2023-04-24T09:55:02;9.80;;;4.50;;
75218;SDS011;63801;49.414;19.474;2023-04-24T09:57:11;8.35;;;4.82;;
75218;SDS011;63801;49.414;19.474;2023-04-24T09:59:12;10.85;;;5.20;;
75218;SDS011;63801;49.414;19.474;2023-04-24T10:01:13;10.97;;;5.10;;
75218;SDS011;63801;49.414;19.474;2023-04-24T10:03:13;8.98;;;4.57;;
75218;SDS011;63801;49.414;19.474;2023-04-24T10:05:14;9.88;;;4.88;;
75218;SDS011;63801;49.414;19.474;2023-04-24T10:07:15;7.72;;;4.80;;
75218;SDS011;63801;49.414;19.474;2023-04-24T10:09:16;12.60;;;5.50;;
75218;SDS011;63801;49.414;19.474;2023-04-24T10:11:17;18.80;;;5.40;;
75218;SDS011;63801;49.414;19.474;2023-04-24T10:13:18;11.20;;;5.78;;
75218;SDS011;63801;49.414;19.474;2023-04-24T10:15:19;12.38;;;5.47;;
75218;SDS011;63801;49.414;19.474;2023-04-24T10:17:21;8.00;;;4.85;;
75218;SDS011;63801;49.414;19.474;2023-04-24T10:19:24;12.02;;;6.07;;
75218;SDS011;63801;49.414;19.474;2023-04-24T10:21:26;8.23;;;5.20;;
75218;SDS011;63801;49.414;19.474;2023-04-24T10:23:26;8.15;;;4.80;;
75218;SDS011;63801;49.414;19.474;2023-04-24T10:25:29;9.05;;;4.90;;
75218;SDS011;63801;49.414;19.474;2023-04-24T10:27:31;12.80;;;5.35;;
75218;SDS011;63801;49.414;19.474;2023-04-24T10:29:32;13.43;;;5.55;;
75218;SDS011;63801;49.414;19.474;2023-04-24T10:31:36;8.10;;;5.38;;
75218;SDS011;63801;49.414;19.474;2023-04-24T10:33:40;7.43;;;5.55;;
75218;SDS011;63801;49.414;19.474;2023-04-24T10:35:45;8.07;;;4.63;;
75218;SDS011;63801;49.414;19.474;2023-04-24T10:37:50;9.23;;;5.05;;
75218;SDS011;63801;49.414;19.474;2023-04-24T10:39:51;11.45;;;5.50;;
75218;SDS011;63801;49.414;19.474;2023-04-24T10:41:54;8.70;;;6.00;;
75218;SDS011;63801;49.414;19.474;2023-04-24T10:44:05;10.82;;;5.03;;
75218;SDS011;63801;49.414;19.474;2023-04-24T10:46:06;8.75;;;5.53;;
75218;SDS011;63801;49.414;19.474;2023-04-24T10:48:08;13.02;;;5.57;;
75218;SDS011;63801;49.414;19.474;2023-04-24T10:50:13;9.05;;;5.25;;
75218;SDS011;63801;49.414;19.474;2023-04-24T10:52:13;8.30;;;5.82;;
75218;SDS011;63801;49.414;19.474;2023-04-24T10:54:24;10.77;;;5.70;;
75218;SDS011;63801;49.414;19.474;2023-04-24T10:56:24;8.05;;;5.65;;
75218;SDS011;63801;49.414;19.474;2023-04-24T10:58:35;8.98;;;5.28;;
75218;SDS011;63801;49.414;19.474;2023-04-24T11:00:39;13.77;;;6.27;;
75218;SDS011;63801;49.414;19.474;2023-04-24T11:02:40;13.68;;;5.97;;
75218;SDS011;63801;49.414;19.474;2023-04-24T11:04:48;9.82;;;5.40;;
75218;SDS011;63801;49.414;19.474;2023-04-24T11:06:51;9.70;;;5.93;;
75218;SDS011;63801;49.414;19.474;2023-04-24T11:08:52;9.07;;;6.57;;
75218;SDS011;63801;49.414;19.474;2023-04-24T11:11:09;9.00;;;6.13;;
75218;SDS011;63801;49.414;19.474;2023-04-24T11:13:15;11.02;;;6.80;;
75218;SDS011;63801;49.414;19.474;2023-04-24T11:15:17;9.63;;;6.50;;
75218;SDS011;63801;49.414;19.474;2023-04-24T11:17:29;10.57;;;5.72;;
75218;SDS011;63801;49.414;19.474;2023-04-24T11:19:34;9.93;;;6.00;;
75218;SDS011;63801;49.414;19.474;2023-04-24T11:21:40;12.10;;;6.70;;
75218;SDS011;63801;49.414;19.474;2023-04-24T11:23:41;10.02;;;5.80;;
75218;SDS011;63801;49.414;19.474;2023-04-24T11:25:42;8.70;;;5.55;;
75218;SDS011;63801;49.414;19.474;2023-04-24T11:27:43;9.35;;;5.60;;
75218;SDS011;63801;49.414;19.474;2023-04-24T11:29:51;8.00;;;5.78;;
75218;SDS011;63801;49.414;19.474;2023-04-24T11:32:14;8.23;;;5.68;;
75218;SDS011;63801;49.414;19.474;2023-04-24T11:34:25;10.75;;;6.00;;
75218;SDS011;63801;49.414;19.474;2023-04-24T11:36:26;11.07;;;6.78;;
75218;SDS011;63801;49.414;19.474;2023-04-24T11:38:26;10.07;;;6.60;;
75218;SDS011;63801;49.414;19.474;2023-04-24T11:40:27;11.00;;;6.20;;
75218;SDS011;63801;49.414;19.474;2023-04-24T11:42:27;9.45;;;6.82;;
75218;SDS011;63801;49.414;19.474;2023-04-24T11:44:28;15.95;;;7.90;;
75218;SDS011;63801;49.414;19.474;2023-04-24T11:46:30;12.98;;;7.38;;